Pagrindinis puslapis
METAR-TAF:

METAR-TAF

Oro uostai :

Paksė, Laosas

platuma: 15-08-02N, ilguma: 105-46-55E, Aukštis: 107 m

Dabartinis oras

Ataskaita buvo paskelbta 18 minutes, ne 12:00 UTC
Vėjas 2 kt iš Pietvakarių
Temperatūra 29°C
Drėgmė 35%
Slėgis 1012 hPa
Matomumas 10 km arba daugiau
Mažai debesys ne aukštis 2000 ft
Su prošvaistėmis ne aukštis 5000 ft

METAR: VLPS 151200Z 22002KT 9999 FEW020 BKN050 29/12 Q1012 NOSIG

Laikas: 19:18 (12:18 UTC)

Prognozė

Ataskaita buvo paskelbta 1 valandą ir 18 minutes, ne 11:00 UTC
Prognozė galioja nuo 15 metu 12 UTC su 16 metu 12 UTC
Vėjas 6 kt iš Pietų
Matomumas 10 km arba daugiau
Išsisklaidę debesys ne aukštis 2000 ft
Išsisklaidę debesys ne aukštis 5000 ft

TAF: VLPS 151100Z 1512/1612 18006KT 9999 SCT020 SCT050

Orai ataskaitas ir orų prognozės (METAR, TAF).

turimą stotys yra geltonos ir raudonos taškus žemėlapyje.

Perkelti pele per norėdami pamatyti stoties vardą.

Tada spustelėkite, norėdami matyti oro stebėjimo ir prognozės.

Norėdami pakeisti žemėlapį: spustelėkite ant žalios mygtukų su juodo kryžiaus žemyn,; žalią mygtuką su brūkšneliu, jei norite nutolinti; arba žalių rodyklių gretimoms žemėlapius.


METAR-TAF: